createdAt,value
2019-02-26T00:01:21.089Z,7.50
2019-02-26T00:03:52.314Z,7.50
2019-02-26T00:06:25.355Z,7.40
2019-02-26T00:08:58.791Z,7.50
2019-02-26T00:11:30.876Z,7.50
2019-02-26T00:14:02.246Z,7.40
2019-02-26T00:16:37.700Z,7.40
2019-02-26T00:19:07.435Z,7.40
2019-02-26T00:21:39.607Z,7.50
2019-02-26T00:24:12.931Z,7.50
2019-02-26T00:26:45.156Z,7.50
2019-02-26T00:29:16.537Z,7.50
2019-02-26T00:31:48.989Z,7.50
2019-02-26T00:34:20.624Z,7.50
2019-02-26T00:36:51.982Z,7.50
2019-02-26T00:39:25.041Z,7.50
2019-02-26T00:41:58.227Z,7.50
2019-02-26T00:44:32.217Z,7.50
2019-02-26T00:47:04.832Z,7.50
2019-02-26T00:49:35.951Z,7.40
2019-02-26T00:52:08.793Z,7.40
2019-02-26T00:54:40.187Z,7.40
2019-02-26T00:57:12.263Z,7.40
2019-02-26T00:59:45.912Z,7.40
2019-02-26T01:02:17.213Z,7.40
2019-02-26T01:04:50.483Z,7.40
2019-02-26T01:07:23.768Z,7.40
2019-02-26T01:09:56.923Z,7.40
2019-02-26T01:12:28.505Z,7.40
2019-02-26T01:15:00.249Z,7.40
2019-02-26T01:17:33.262Z,7.30
2019-02-26T01:20:05.755Z,7.40
2019-02-26T01:22:37.846Z,7.30
2019-02-26T01:25:12.575Z,7.10
2019-02-26T01:27:43.702Z,6.90
2019-02-26T01:30:20.753Z,6.70
2019-02-26T01:32:49.363Z,6.70
2019-02-26T01:35:20.626Z,6.80
2019-02-26T01:37:53.662Z,6.90
2019-02-26T01:40:25.793Z,6.90
2019-02-26T01:43:00.497Z,6.80
2019-02-26T01:45:32.406Z,6.80
2019-02-26T01:48:04.499Z,7.10
2019-02-26T01:50:37.965Z,7.20
2019-02-26T01:53:09.501Z,7.30
2019-02-26T01:55:42.124Z,7.30
2019-02-26T01:58:16.055Z,7.30
2019-02-26T02:00:46.724Z,7.30
2019-02-26T02:03:18.644Z,7.30
2019-02-26T02:05:53.013Z,7.30
2019-02-26T02:08:24.970Z,7.20
2019-02-26T02:10:59.373Z,7.20
2019-02-26T02:13:30.583Z,7.20
2019-02-26T02:16:04.467Z,7.30
2019-02-26T02:18:36.637Z,7.30
2019-02-26T02:21:08.346Z,7.20
2019-02-26T02:23:39.674Z,7.20
2019-02-26T02:26:13.351Z,7.20
2019-02-26T02:28:44.276Z,7.20
2019-02-26T02:31:15.665Z,7.10
2019-02-26T02:33:47.010Z,7.30
2019-02-26T02:36:20.627Z,7.20
2019-02-26T02:38:52.347Z,7.20
2019-02-26T02:41:24.110Z,7.20
2019-02-26T02:43:55.254Z,7.20
2019-02-26T02:46:27.439Z,7.30
2019-02-26T02:48:58.650Z,7.20
2019-02-26T02:51:31.477Z,7.30
2019-02-26T02:54:02.810Z,7.30
2019-02-26T02:56:36.159Z,7.30
2019-02-26T02:59:08.829Z,7.30
2019-02-26T03:01:39.979Z,7.20
2019-02-26T03:04:14.706Z,7.20
2019-02-26T03:06:58.024Z,7.20
2019-02-26T03:09:28.711Z,7.10
2019-02-26T03:12:00.131Z,7.10
2019-02-26T03:14:33.801Z,7.20
2019-02-26T03:17:06.432Z,7.10
2019-02-26T03:19:40.367Z,7.10
2019-02-26T03:22:12.909Z,7.10
2019-02-26T03:24:44.161Z,7.10
2019-02-26T03:27:15.504Z,7.10
2019-02-26T03:29:49.799Z,7.10
2019-02-26T03:32:20.301Z,7.20
2019-02-26T03:34:52.943Z,7.10
2019-02-26T03:37:25.807Z,7.10
2019-02-26T03:39:58.074Z,7.00
2019-02-26T03:42:33.255Z,7.00
2019-02-26T03:45:04.549Z,7.10
2019-02-26T03:47:39.968Z,7.10
2019-02-26T03:50:10.697Z,7.10
2019-02-26T03:52:42.349Z,7.10
2019-02-26T03:55:18.287Z,7.10
2019-02-26T03:57:50.393Z,7.10
2019-02-26T04:00:20.600Z,7.10
2019-02-26T04:02:52.237Z,7.10
2019-02-26T04:05:23.785Z,7.10
2019-02-26T04:07:56.839Z,7.20
2019-02-26T04:10:28.808Z,7.20
2019-02-26T04:13:00.321Z,7.20
2019-02-26T04:15:33.498Z,7.20
2019-02-26T04:18:04.522Z,7.20
2019-02-26T04:20:35.586Z,7.20
2019-02-26T04:23:08.970Z,7.20
2019-02-26T04:26:01.743Z,7.20
2019-02-26T04:28:48.172Z,7.30
2019-02-26T04:32:01.909Z,7.20
2019-02-26T04:35:02.465Z,7.30
2019-02-26T04:38:14.746Z,7.20
2019-02-26T04:41:06.846Z,7.20
2019-02-26T04:44:03.820Z,7.30
2019-02-26T04:47:03.492Z,7.20
2019-02-26T04:49:36.191Z,7.30
2019-02-26T04:52:10.207Z,7.30
2019-02-26T04:54:39.717Z,7.30
2019-02-26T04:57:11.181Z,7.30
2019-02-26T04:59:44.007Z,7.30
2019-02-26T05:02:16.502Z,7.30
2019-02-26T05:04:47.915Z,7.30
2019-02-26T05:07:19.443Z,7.20
2019-02-26T05:09:53.130Z,7.30
2019-02-26T05:12:25.320Z,7.30
2019-02-26T05:14:56.730Z,7.30
2019-02-26T05:17:30.222Z,7.30
2019-02-26T05:20:00.819Z,7.30
2019-02-26T05:22:33.355Z,7.30
2019-02-26T05:25:07.467Z,7.30
2019-02-26T05:27:39.990Z,7.30
2019-02-26T05:30:15.553Z,7.30
2019-02-26T05:32:44.900Z,7.30
2019-02-26T05:35:19.640Z,7.30
2019-02-26T05:37:50.252Z,7.30
2019-02-26T05:40:22.597Z,7.30
2019-02-26T05:42:56.147Z,7.30
2019-02-26T05:45:29.899Z,7.20
2019-02-26T05:48:00.578Z,7.20
2019-02-26T05:50:34.675Z,7.40
2019-02-26T05:53:07.540Z,7.40
2019-02-26T05:55:42.259Z,7.40
2019-02-26T05:58:15.830Z,7.50
2019-02-26T06:00:45.916Z,7.50
2019-02-26T06:03:18.704Z,7.50
2019-02-26T06:05:51.902Z,7.60
2019-02-26T06:08:25.664Z,7.60
2019-02-26T06:10:56.072Z,7.60
2019-02-26T06:13:29.130Z,7.70
2019-02-26T06:16:02.181Z,7.70
2019-02-26T06:18:36.730Z,7.70
2019-02-26T06:21:07.909Z,7.80
2019-02-26T06:23:39.383Z,7.80
2019-02-26T06:26:14.835Z,7.80
2019-02-26T06:28:46.175Z,7.80
2019-02-26T06:31:19.417Z,7.80
2019-02-26T06:34:05.711Z,7.80
2019-02-26T06:36:35.520Z,7.80
2019-02-26T06:39:07.101Z,7.90
2019-02-26T06:41:41.518Z,7.90
2019-02-26T06:44:11.463Z,7.80
2019-02-26T06:46:42.597Z,7.90
2019-02-26T06:49:14.994Z,8.00
2019-02-26T06:51:47.524Z,8.20
2019-02-26T06:54:22.153Z,8.20
2019-02-26T06:56:52.900Z,8.20
2019-02-26T06:59:33.805Z,8.00
2019-02-26T07:02:03.577Z,7.90
2019-02-26T07:04:35.058Z,8.20
2019-02-26T07:07:09.018Z,8.20
2019-02-26T07:09:41.439Z,8.30
2019-02-26T07:12:12.328Z,8.30
2019-02-26T07:14:43.569Z,8.20
2019-02-26T07:17:14.871Z,8.20
2019-02-26T07:19:46.340Z,8.20
2019-02-26T07:22:18.349Z,8.30
2019-02-26T07:24:51.964Z,8.30
2019-02-26T07:27:22.658Z,8.30
2019-02-26T07:29:54.090Z,8.30
2019-02-26T07:32:25.439Z,8.40
2019-02-26T07:34:58.101Z,8.40
2019-02-26T07:37:31.456Z,8.40
2019-02-26T07:40:03.737Z,8.40
2019-02-26T07:42:37.283Z,8.40
2019-02-26T07:45:14.930Z,8.40
2019-02-26T07:47:42.220Z,8.40
2019-02-26T07:50:14.623Z,8.50
2019-02-26T07:52:47.379Z,8.50
2019-02-26T07:55:19.551Z,8.60
2019-02-26T07:57:53.169Z,8.60
2019-02-26T08:00:25.255Z,8.60
2019-02-26T08:02:58.007Z,8.60
2019-02-26T08:05:29.837Z,8.70
2019-02-26T08:08:01.013Z,8.60
2019-02-26T08:10:35.141Z,8.60
2019-02-26T08:13:07.685Z,8.70
2019-02-26T08:15:39.884Z,8.80
2019-02-26T08:18:11.361Z,8.80
2019-02-26T08:20:42.732Z,8.80
2019-02-26T08:23:14.783Z,8.90
2019-02-26T08:25:46.885Z,8.90
2019-02-26T08:28:20.307Z,8.70
2019-02-26T08:30:52.899Z,8.80
2019-02-26T08:33:23.855Z,8.80
2019-02-26T08:35:56.089Z,8.80
2019-02-26T08:38:30.223Z,9.00
2019-02-26T08:41:01.595Z,9.10
2019-02-26T08:43:34.033Z,9.30
2019-02-26T08:46:07.282Z,9.70
2019-02-26T08:48:39.473Z,10.50
2019-02-26T08:51:14.283Z,11.20
2019-02-26T08:53:44.455Z,11.10
2019-02-26T08:56:18.755Z,11.30
2019-02-26T08:58:50.255Z,11.20
2019-02-26T09:01:32.587Z,10.90
2019-02-26T09:04:03.753Z,10.80
2019-02-26T09:06:35.118Z,10.80
2019-02-26T09:09:09.132Z,10.90
2019-02-26T09:11:40.530Z,11.40
2019-02-26T09:14:14.002Z,12.00
2019-02-26T09:16:47.688Z,12.50
2019-02-26T09:19:17.331Z,12.90
2019-02-26T09:21:50.649Z,12.90
2019-02-26T09:24:21.245Z,12.80
2019-02-26T09:26:54.699Z,13.40
2019-02-26T09:29:25.476Z,13.40
2019-02-26T09:31:57.802Z,13.40
2019-02-26T09:34:31.562Z,13.60
2019-02-26T09:37:03.507Z,13.90
2019-02-26T09:39:36.482Z,13.90
2019-02-26T09:42:09.253Z,13.90
2019-02-26T09:44:40.731Z,14.10
2019-02-26T09:47:12.085Z,14.20
2019-02-26T09:49:44.295Z,14.50
2019-02-26T09:52:15.347Z,13.80
2019-02-26T09:54:57.798Z,13.80
2019-02-26T09:57:29.198Z,13.60
2019-02-26T10:00:02.945Z,13.00
2019-02-26T10:02:35.896Z,13.40
2019-02-26T10:05:08.647Z,13.80
2019-02-26T10:07:40.490Z,14.10
2019-02-26T10:10:14.463Z,14.40
2019-02-26T10:12:46.898Z,14.40
2019-02-26T10:15:18.238Z,14.60
2019-02-26T10:17:49.483Z,14.80
2019-02-26T10:20:24.833Z,14.50
2019-02-26T10:22:57.157Z,13.90
2019-02-26T10:25:29.290Z,13.50
2019-02-26T10:28:03.044Z,13.10
2019-02-26T10:30:33.971Z,13.30
2019-02-26T10:33:08.193Z,13.20
2019-02-26T10:35:44.372Z,13.20
2019-02-26T10:38:13.497Z,13.00
2019-02-26T10:40:53.220Z,12.60
2019-02-26T10:43:17.603Z,13.10
2019-02-26T10:45:50.666Z,13.50
2019-02-26T10:48:24.508Z,13.00
2019-02-26T10:50:54.902Z,13.50
2019-02-26T10:53:25.963Z,14.40
2019-02-26T10:55:57.388Z,13.80
2019-02-26T10:58:28.843Z,13.00
2019-02-26T11:01:02.501Z,13.10
2019-02-26T11:03:37.914Z,13.20
2019-02-26T11:06:08.148Z,13.50
2019-02-26T11:08:41.023Z,13.60
2019-02-26T11:11:13.958Z,13.50
2019-02-26T11:13:51.007Z,13.40
2019-02-26T11:16:25.282Z,13.70
2019-02-26T11:18:52.440Z,14.40
2019-02-26T11:21:23.438Z,14.60
2019-02-26T11:23:54.613Z,14.40
2019-02-26T11:26:25.931Z,14.60
2019-02-26T11:28:57.599Z,15.00
2019-02-26T11:31:28.747Z,15.00
2019-02-26T11:34:03.315Z,14.70
2019-02-26T11:36:34.945Z,15.00
2019-02-26T11:39:09.253Z,14.60
2019-02-26T11:41:41.310Z,14.00
2019-02-26T11:44:15.559Z,14.50
2019-02-26T11:47:05.126Z,14.10
2019-02-26T11:49:36.940Z,14.30
2019-02-26T11:52:09.085Z,14.20
2019-02-26T11:54:42.063Z,14.30
2019-02-26T11:57:15.188Z,13.90
2019-02-26T11:59:47.433Z,14.20
2019-02-26T12:02:25.212Z,14.80
2019-02-26T12:04:51.542Z,14.90
2019-02-26T12:07:24.718Z,15.00
2019-02-26T12:09:57.766Z,15.70
2019-02-26T12:12:30.953Z,16.00
2019-02-26T12:15:04.158Z,15.40
2019-02-26T12:17:36.314Z,14.70
2019-02-26T12:20:09.700Z,14.30
2019-02-26T12:22:41.733Z,13.80
2019-02-26T12:25:14.052Z,13.90
2019-02-26T12:27:45.647Z,13.80
2019-02-26T12:30:20.705Z,14.10
2019-02-26T12:32:53.050Z,13.60
2019-02-26T12:35:25.270Z,14.00
2019-02-26T12:37:59.372Z,14.30
2019-02-26T12:40:29.712Z,14.50
2019-02-26T12:43:01.983Z,14.60
2019-02-26T12:45:37.271Z,14.80
2019-02-26T12:48:09.872Z,15.20
2019-02-26T12:50:40.412Z,15.80
2019-02-26T12:53:14.955Z,15.10
2019-02-26T12:55:46.090Z,15.10
2019-02-26T12:58:20.068Z,14.30
2019-02-26T13:01:01.411Z,14.30
2019-02-26T13:03:35.222Z,14.50
2019-02-26T13:06:08.685Z,14.50
2019-02-26T13:08:39.868Z,14.50
2019-02-26T13:11:14.018Z,14.60
2019-02-26T13:13:45.324Z,14.20
2019-02-26T13:16:17.700Z,14.70
2019-02-26T13:18:51.672Z,14.60
2019-02-26T13:21:23.361Z,14.10
2019-02-26T13:23:58.692Z,14.30
2019-02-26T13:26:34.604Z,14.10
2019-02-26T13:29:01.101Z,13.90
2019-02-26T13:34:05.585Z,14.10
2019-02-26T13:36:39.704Z,14.10
2019-02-26T13:39:10.891Z,13.60
2019-02-26T13:41:42.453Z,13.80
2019-02-26T13:44:13.542Z,13.70
2019-02-26T13:46:44.918Z,13.50
2019-02-26T13:49:16.040Z,13.30
2019-02-26T13:51:47.420Z,13.20
2019-02-26T13:54:18.834Z,13.30
2019-02-26T13:56:50.048Z,13.50
2019-02-26T13:59:21.165Z,13.40
2019-02-26T14:01:52.554Z,13.30
2019-02-26T14:04:24.095Z,13.20
2019-02-26T14:06:55.531Z,13.10
2019-02-26T14:09:28.725Z,13.00
2019-02-26T14:12:00.189Z,12.80
2019-02-26T14:14:31.502Z,12.70
2019-02-26T14:17:02.765Z,12.60
2019-02-26T14:19:34.222Z,12.60
2019-02-26T14:22:05.566Z,12.70
2019-02-26T14:24:37.344Z,12.60
2019-02-26T14:27:08.802Z,12.60
2019-02-26T14:29:40.040Z,12.40
2019-02-26T14:32:11.494Z,12.40
2019-02-26T14:34:42.997Z,12.30
2019-02-26T14:37:14.212Z,12.30
2019-02-26T14:39:45.570Z,12.40
2019-02-26T14:42:16.816Z,12.10
2019-02-26T14:44:48.144Z,11.90
2019-02-26T14:47:19.366Z,11.40
2019-02-26T14:49:51.374Z,11.30
2019-02-26T14:52:22.605Z,11.20
2019-02-26T14:54:53.940Z,11.00
2019-02-26T14:57:25.368Z,10.70
2019-02-26T14:59:56.594Z,10.40
2019-02-26T15:02:27.847Z,10.10
2019-02-26T15:04:59.112Z,9.80
2019-02-26T15:07:30.847Z,9.60
2019-02-26T15:10:03.831Z,9.40
2019-02-26T15:12:35.738Z,9.30
2019-02-26T15:15:07.506Z,9.20
2019-02-26T15:17:39.029Z,9.20
2019-02-26T15:20:12.577Z,9.20
2019-02-26T15:22:44.027Z,9.00
2019-02-26T15:25:20.659Z,8.80
2019-02-26T15:27:52.470Z,8.80
2019-02-26T15:30:24.459Z,8.70
2019-02-26T15:32:56.060Z,8.60
2019-02-26T15:35:28.331Z,8.50
2019-02-26T15:38:00.010Z,8.30
2019-02-26T15:40:31.645Z,8.20
2019-02-26T15:43:03.828Z,8.00
2019-02-26T15:45:35.478Z,7.90
2019-02-26T15:48:06.977Z,7.80
2019-02-26T15:50:40.248Z,7.70
2019-02-26T15:53:11.994Z,7.70
2019-02-26T15:55:43.923Z,7.60
2019-02-26T15:58:15.525Z,7.40
2019-02-26T16:00:46.894Z,7.40
2019-02-26T16:03:18.607Z,7.40
2019-02-26T16:05:50.545Z,7.30
2019-02-26T16:08:21.698Z,7.30
2019-02-26T16:10:52.864Z,7.20
2019-02-26T16:13:24.271Z,7.20
2019-02-26T16:15:55.660Z,7.10
2019-02-26T16:18:27.653Z,7.20
2019-02-26T16:20:59.990Z,7.20
2019-02-26T16:23:31.373Z,7.20
2019-02-26T16:26:02.726Z,7.20
2019-02-26T16:28:34.075Z,7.20
2019-02-26T16:31:06.470Z,7.20
2019-02-26T16:33:38.016Z,7.10
2019-02-26T16:36:09.402Z,7.20
2019-02-26T16:38:40.545Z,7.10
2019-02-26T16:41:11.908Z,7.10
2019-02-26T16:43:43.141Z,7.10
2019-02-26T16:46:14.356Z,7.10
2019-02-26T16:48:46.026Z,7.10
2019-02-26T16:51:21.020Z,7.20
2019-02-26T16:53:50.022Z,7.10
2019-02-26T16:56:21.855Z,7.20
2019-02-26T16:58:54.588Z,7.20
2019-02-26T17:01:28.572Z,7.20
2019-02-26T17:04:00.048Z,7.20
2019-02-26T17:06:31.568Z,7.20
2019-02-26T17:09:02.938Z,7.10
2019-02-26T17:11:35.910Z,7.10
2019-02-26T17:14:07.470Z,7.20
2019-02-26T17:16:38.783Z,7.20
2019-02-26T17:19:10.613Z,7.20
2019-02-26T17:21:42.518Z,7.10
2019-02-26T17:24:14.190Z,7.20
2019-02-26T17:26:45.448Z,7.20
2019-02-26T17:29:19.603Z,7.20
2019-02-26T17:31:50.625Z,7.20
2019-02-26T17:34:23.525Z,7.20
2019-02-26T17:36:55.094Z,7.20
2019-02-26T17:39:28.637Z,7.20
2019-02-26T17:41:59.577Z,7.10
2019-02-26T17:44:30.882Z,7.10
2019-02-26T17:47:01.982Z,7.20
2019-02-26T17:49:33.626Z,7.20
2019-02-26T17:52:06.592Z,7.20
2019-02-26T17:54:37.816Z,7.20
2019-02-26T17:57:09.255Z,7.20
2019-02-26T17:59:40.366Z,7.20
2019-02-26T18:02:11.807Z,7.20
2019-02-26T18:04:43.253Z,7.20
2019-02-26T18:07:14.598Z,7.20
2019-02-26T18:09:45.700Z,7.20
2019-02-26T18:12:17.050Z,7.10
2019-02-26T18:14:48.277Z,7.10
2019-02-26T18:17:19.517Z,7.10
2019-02-26T18:19:50.784Z,7.10
2019-02-26T18:22:23.095Z,7.10
2019-02-26T18:24:54.609Z,7.10
2019-02-26T18:27:27.739Z,7.00
2019-02-26T18:29:59.251Z,7.00
2019-02-26T18:32:30.365Z,7.00
2019-02-26T18:35:01.878Z,7.10
2019-02-26T18:37:33.410Z,7.00
2019-02-26T18:40:04.958Z,7.10
2019-02-26T18:42:36.225Z,7.10
2019-02-26T18:45:11.926Z,7.10
2019-02-26T18:47:43.409Z,7.00
2019-02-26T18:50:15.280Z,7.10
2019-02-26T18:52:46.603Z,7.00
2019-02-26T18:55:18.669Z,7.00
2019-02-26T18:57:50.170Z,7.10
2019-02-26T19:00:25.698Z,7.00
2019-02-26T19:02:56.690Z,7.10
2019-02-26T19:05:28.211Z,7.10
2019-02-26T19:07:59.574Z,7.10
2019-02-26T19:10:31.696Z,7.10
2019-02-26T19:13:04.129Z,7.10
2019-02-26T19:15:35.882Z,7.20
2019-02-26T19:18:07.143Z,7.20
2019-02-26T19:20:38.381Z,7.20
2019-02-26T19:23:09.652Z,7.00
2019-02-26T19:25:41.659Z,7.00
2019-02-26T19:28:13.575Z,6.90
2019-02-26T19:30:45.021Z,6.90
2019-02-26T19:33:18.759Z,6.90
2019-02-26T19:35:52.360Z,6.90
2019-02-26T19:38:27.263Z,6.90
2019-02-26T19:40:57.976Z,6.90
2019-02-26T19:43:40.612Z,6.90
2019-02-26T19:46:16.914Z,6.90
2019-02-26T19:48:46.603Z,6.90
2019-02-26T19:51:21.861Z,6.90
2019-02-26T19:53:52.141Z,6.90
2019-02-26T19:56:24.360Z,6.80
2019-02-26T19:58:57.548Z,6.80
2019-02-26T20:01:30.343Z,6.80
2019-02-26T20:04:01.504Z,6.90
2019-02-26T20:06:33.102Z,6.90
2019-02-26T20:09:06.432Z,6.90
2019-02-26T20:11:39.587Z,6.80
2019-02-26T20:14:11.668Z,6.80
2019-02-26T20:16:44.321Z,6.80
2019-02-26T20:19:15.936Z,6.80
2019-02-26T20:21:51.421Z,6.80
2019-02-26T20:24:20.173Z,6.70
2019-02-26T20:26:51.534Z,6.70
2019-02-26T20:29:22.892Z,6.70
2019-02-26T20:31:55.766Z,6.60
2019-02-26T20:34:27.192Z,6.60
2019-02-26T20:36:58.480Z,6.60
2019-02-26T20:39:29.806Z,6.60
2019-02-26T20:42:01.225Z,6.70
2019-02-26T20:44:32.577Z,6.70
2019-02-26T20:47:04.108Z,6.60
2019-02-26T20:49:35.404Z,6.60
2019-02-26T20:52:08.739Z,6.60
2019-02-26T20:54:39.998Z,6.60
2019-02-26T20:57:11.188Z,6.60
2019-02-26T20:59:42.401Z,6.60
2019-02-26T21:02:14.471Z,6.60
2019-02-26T21:04:45.802Z,6.70
2019-02-26T21:07:16.924Z,6.80
2019-02-26T21:09:48.134Z,6.70
2019-02-26T21:12:19.446Z,6.60
2019-02-26T21:14:50.599Z,6.60
2019-02-26T21:17:25.621Z,6.60
2019-02-26T21:19:54.989Z,6.50
2019-02-26T21:22:26.353Z,6.40
2019-02-26T21:24:57.651Z,6.40
2019-02-26T21:27:28.880Z,6.30
2019-02-26T21:30:00.202Z,6.40
2019-02-26T21:32:31.398Z,6.40
2019-02-26T21:35:02.746Z,6.30
2019-02-26T21:37:33.901Z,6.30
2019-02-26T21:40:07.152Z,6.20
2019-02-26T21:42:38.402Z,6.20
2019-02-26T21:45:15.101Z,6.20
2019-02-26T21:47:43.576Z,6.30
2019-02-26T21:50:14.959Z,6.40
2019-02-26T21:52:59.101Z,6.40
2019-02-26T21:55:19.222Z,6.50
2019-02-26T21:57:54.560Z,6.40
2019-02-26T22:00:24.595Z,6.40
2019-02-26T22:02:55.898Z,6.20
2019-02-26T22:05:27.154Z,6.10
2019-02-26T22:07:58.445Z,6.10
2019-02-26T22:10:30.002Z,6.00
2019-02-26T22:13:01.358Z,6.00
2019-02-26T22:15:33.490Z,6.00
2019-02-26T22:18:04.917Z,6.00
2019-02-26T22:20:36.753Z,6.00
2019-02-26T22:23:08.059Z,6.00
2019-02-26T22:25:39.311Z,6.00
2019-02-26T22:28:10.720Z,6.00
2019-02-26T22:30:42.417Z,6.00
2019-02-26T22:33:13.618Z,6.00
2019-02-26T22:35:44.767Z,6.00
2019-02-26T22:38:17.212Z,5.90
2019-02-26T22:40:48.434Z,5.90
2019-02-26T22:43:19.716Z,5.90
2019-02-26T22:45:54.217Z,6.00
2019-02-26T22:48:25.499Z,5.80
2019-02-26T22:50:59.597Z,5.80
2019-02-26T22:53:29.647Z,5.70
2019-02-26T22:56:00.891Z,5.70
2019-02-26T22:58:35.631Z,5.70
2019-02-26T23:01:30.093Z,5.70
2019-02-26T23:03:56.029Z,5.60
2019-02-26T23:06:29.540Z,5.60
2019-02-26T23:09:00.647Z,5.60
2019-02-26T23:11:34.202Z,5.60
2019-02-26T23:14:05.893Z,5.60
2019-02-26T23:16:37.385Z,5.60
2019-02-26T23:19:09.987Z,5.50
2019-02-26T23:21:43.175Z,5.40
2019-02-26T23:24:14.934Z,5.40
2019-02-26T23:26:46.350Z,5.50
2019-02-26T23:29:17.725Z,5.30
2019-02-26T23:31:49.512Z,5.30
2019-02-26T23:34:22.570Z,5.20
2019-02-26T23:36:53.970Z,5.30
2019-02-26T23:39:26.004Z,5.40
2019-02-26T23:41:58.770Z,5.20
2019-02-26T23:44:31.213Z,5.20
2019-02-26T23:47:02.695Z,5.10
2019-02-26T23:49:37.793Z,5.20
2019-02-26T23:52:09.137Z,5.10
2019-02-26T23:54:40.660Z,5.10
2019-02-26T23:57:30.525Z,5.10
